createdAt,value
2023-03-17T00:00:37.248Z,60.55
2023-03-17T00:03:31.552Z,64.77
2023-03-17T00:06:30.606Z,67.39
2023-03-17T00:09:20.234Z,64.47
2023-03-17T00:12:12.469Z,61.48
2023-03-17T00:14:59.238Z,57.16
2023-03-17T00:17:49.172Z,56.16
2023-03-17T00:20:36.898Z,58.24
2023-03-17T00:23:24.958Z,59.39
2023-03-17T00:26:12.061Z,61.35
2023-03-17T00:29:00.613Z,65.02
2023-03-17T00:31:47.612Z,67.48
2023-03-17T00:34:34.649Z,64.59
2023-03-17T00:37:22.550Z,61.72
2023-03-17T00:40:22.451Z,57.98
2023-03-17T00:43:08.939Z,56.52
2023-03-17T00:45:59.216Z,56.98
2023-03-17T00:48:46.182Z,59.26
2023-03-17T00:51:33.290Z,60.35
2023-03-17T00:54:20.810Z,64.34
2023-03-17T00:57:10.148Z,67.04
2023-03-17T00:59:56.981Z,64.93
2023-03-17T01:02:44.976Z,62.24
2023-03-17T01:05:31.513Z,59.88
2023-03-17T01:08:18.359Z,55.63
2023-03-17T01:11:04.786Z,56.85
2023-03-17T01:13:52.091Z,58.89
2023-03-17T01:16:39.053Z,60.05
2023-03-17T01:19:25.286Z,64.05
2023-03-17T01:22:11.581Z,66.09
2023-03-17T01:24:58.287Z,63.66
2023-03-17T01:27:46.061Z,60.99
2023-03-17T01:30:37.967Z,57.94
2023-03-17T01:33:24.979Z,57.00
2023-03-17T01:36:11.436Z,59.36
2023-03-17T01:38:58.045Z,60.76
2023-03-17T01:41:46.519Z,64.74
2023-03-17T01:44:32.859Z,66.40
2023-03-17T01:47:19.154Z,63.78
2023-03-17T01:50:09.361Z,60.84
2023-03-17T01:52:56.097Z,59.65
2023-03-17T01:55:44.976Z,56.91
2023-03-17T01:58:32.948Z,57.81
2023-03-17T02:01:30.036Z,60.08
2023-03-17T02:04:18.834Z,63.26
2023-03-17T02:07:07.653Z,65.20
2023-03-17T02:09:56.466Z,64.07
2023-03-17T02:12:45.252Z,62.11
2023-03-17T02:15:43.960Z,60.87
2023-03-17T02:18:31.607Z,57.27
2023-03-17T02:21:34.890Z,58.06
2023-03-17T02:24:31.438Z,59.75
2023-03-17T02:27:23.725Z,65.63
2023-03-17T02:30:18.577Z,64.63
2023-03-17T02:33:05.423Z,61.45
2023-03-17T02:35:52.308Z,60.80
2023-03-17T02:38:38.772Z,59.77
2023-03-17T02:41:25.106Z,56.70
2023-03-17T02:44:11.366Z,58.27
2023-03-17T02:46:58.605Z,59.37
2023-03-17T02:49:45.119Z,62.22
2023-03-17T02:52:31.768Z,66.77
2023-03-17T02:55:18.127Z,66.24
2023-03-17T02:58:04.882Z,63.69
2023-03-17T03:00:51.373Z,61.50
2023-03-17T03:03:37.916Z,60.30
2023-03-17T03:06:24.634Z,59.17
2023-03-17T03:09:11.549Z,57.07
2023-03-17T03:11:57.778Z,58.91
2023-03-17T03:14:43.829Z,61.25
2023-03-17T03:17:30.536Z,65.77
2023-03-17T03:20:17.809Z,65.24
2023-03-17T03:23:04.225Z,63.63
2023-03-17T03:25:50.813Z,60.60
2023-03-17T03:28:37.364Z,58.09
2023-03-17T03:31:24.614Z,58.35
2023-03-17T03:34:11.449Z,61.29
2023-03-17T03:36:58.009Z,65.32
2023-03-17T03:39:45.205Z,65.84
2023-03-17T03:42:31.581Z,62.46
2023-03-17T03:45:18.567Z,60.67
2023-03-17T03:48:05.487Z,58.37
2023-03-17T03:50:59.934Z,58.29
2023-03-17T03:53:47.755Z,61.46
2023-03-17T03:56:34.052Z,64.66
2023-03-17T03:59:20.423Z,63.32
2023-03-17T04:02:09.479Z,60.91
2023-03-17T04:04:56.615Z,58.36
2023-03-17T04:07:42.984Z,59.53
2023-03-17T04:10:31.085Z,62.83
2023-03-17T04:13:18.012Z,65.04
2023-03-17T04:16:05.687Z,63.37
2023-03-17T04:18:52.415Z,60.74
2023-03-17T04:21:38.799Z,58.86
2023-03-17T04:24:27.031Z,59.57
2023-03-17T04:27:14.912Z,61.49
2023-03-17T04:30:01.986Z,66.17
2023-03-17T04:32:48.453Z,66.77
2023-03-17T04:35:34.948Z,64.78
2023-03-17T04:38:21.161Z,61.54
2023-03-17T04:41:07.346Z,58.88
2023-03-17T04:43:53.737Z,60.69
2023-03-17T04:46:40.363Z,63.67
2023-03-17T04:49:26.662Z,65.95
2023-03-17T04:52:13.228Z,63.97
2023-03-17T04:54:59.299Z,62.02
2023-03-17T04:57:45.908Z,60.29
2023-03-17T05:00:38.313Z,59.40
2023-03-17T05:03:27.669Z,57.62
2023-03-17T05:06:15.653Z,61.23
2023-03-17T05:09:01.843Z,65.38
2023-03-17T05:11:48.897Z,65.60
2023-03-17T05:14:37.524Z,63.14
2023-03-17T05:17:24.091Z,61.32
2023-03-17T05:20:11.708Z,58.47
2023-03-17T05:22:58.099Z,59.07
2023-03-17T05:25:45.182Z,61.70
2023-03-17T05:28:32.160Z,65.88
2023-03-17T05:31:18.586Z,65.23
2023-03-17T05:34:05.060Z,62.87
2023-03-17T05:36:51.378Z,61.38
2023-03-17T05:39:39.784Z,58.73
2023-03-17T05:42:26.597Z,58.88
2023-03-17T05:45:13.103Z,63.93
2023-03-17T05:47:59.332Z,64.69
2023-03-17T05:50:46.910Z,61.58
2023-03-17T05:53:34.212Z,60.47
2023-03-17T05:56:21.320Z,57.30
2023-03-17T05:59:07.881Z,59.83
2023-03-17T06:01:54.310Z,62.27
2023-03-17T06:04:41.461Z,65.11
2023-03-17T06:07:35.164Z,63.65
2023-03-17T06:10:28.277Z,61.49
2023-03-17T06:13:15.248Z,58.92
2023-03-17T06:16:02.567Z,59.29
2023-03-17T06:18:49.181Z,62.27
2023-03-17T06:21:35.354Z,64.73
2023-03-17T06:24:22.132Z,63.32
2023-03-17T06:27:10.282Z,61.28
2023-03-17T06:29:56.973Z,58.36
2023-03-17T06:32:43.536Z,58.38
2023-03-17T06:35:31.643Z,60.75
2023-03-17T06:38:18.226Z,63.17
2023-03-17T06:41:05.009Z,62.41
2023-03-17T06:43:51.061Z,60.51
2023-03-17T06:46:39.343Z,57.20
2023-03-17T06:49:25.863Z,58.20
2023-03-17T06:52:13.069Z,61.52
2023-03-17T06:54:59.263Z,63.27
2023-03-17T06:57:46.471Z,62.82
2023-03-17T07:00:33.138Z,59.11
2023-03-17T07:03:21.876Z,58.58
2023-03-17T07:06:08.539Z,61.19
2023-03-17T07:08:54.796Z,63.21
2023-03-17T07:11:41.002Z,61.11
2023-03-17T07:14:27.130Z,58.43
2023-03-17T07:17:18.541Z,59.13
2023-03-17T07:20:06.128Z,62.73
2023-03-17T07:22:52.300Z,63.19
2023-03-17T07:25:39.891Z,60.87
2023-03-17T07:28:26.632Z,59.70
2023-03-17T07:31:13.873Z,57.55
2023-03-17T07:34:00.100Z,60.44
2023-03-17T07:36:46.577Z,63.25
2023-03-17T07:39:33.019Z,62.62
2023-03-17T07:42:19.645Z,59.86
2023-03-17T07:45:07.451Z,58.20
2023-03-17T07:47:53.968Z,59.83
2023-03-17T07:50:41.837Z,63.18
2023-03-17T07:53:29.168Z,62.83
2023-03-17T07:56:17.197Z,60.46
2023-03-17T07:59:04.025Z,58.21
2023-03-17T08:01:51.148Z,60.00
2023-03-17T08:04:39.262Z,61.92
2023-03-17T08:07:25.782Z,63.94
2023-03-17T08:10:14.209Z,59.58
2023-03-17T08:13:01.254Z,58.15
2023-03-17T08:15:47.751Z,57.51
2023-03-17T08:18:34.657Z,57.85
2023-03-17T08:21:21.156Z,59.23
2023-03-17T08:24:07.786Z,58.98
2023-03-17T08:26:54.007Z,57.65
2023-03-17T08:29:40.554Z,58.31
2023-03-17T08:32:26.819Z,56.04
2023-03-17T08:35:16.576Z,57.02
2023-03-17T08:38:04.005Z,57.10
2023-03-17T08:40:50.416Z,56.59
2023-03-17T08:43:38.744Z,58.03
2023-03-17T08:46:29.772Z,59.72
2023-03-17T08:49:16.477Z,59.30
2023-03-17T08:52:02.920Z,58.43
2023-03-17T08:54:50.077Z,57.90
2023-03-17T08:57:36.483Z,54.53
2023-03-17T09:00:23.322Z,53.30
2023-03-17T09:03:09.436Z,51.79
2023-03-17T09:05:57.522Z,52.42
2023-03-17T09:08:46.641Z,51.24
2023-03-17T09:11:33.363Z,49.78
2023-03-17T09:14:20.027Z,49.72
2023-03-17T09:17:07.928Z,48.91
2023-03-17T09:19:54.788Z,49.96
2023-03-17T09:22:42.468Z,50.82
2023-03-17T09:25:28.523Z,52.31
2023-03-17T09:28:15.001Z,53.39
2023-03-17T09:31:10.686Z,54.00
2023-03-17T09:33:57.732Z,54.77
2023-03-17T09:36:44.358Z,55.23
2023-03-17T09:39:31.257Z,55.35
2023-03-17T09:42:26.548Z,55.86
2023-03-17T09:45:19.306Z,55.58
2023-03-17T09:48:44.065Z,55.57
2023-03-17T09:51:31.879Z,55.16
2023-03-17T09:54:28.445Z,55.50
2023-03-17T09:57:34.971Z,55.62
2023-03-17T10:00:28.665Z,54.71
2023-03-17T10:03:15.717Z,52.25
2023-03-17T10:06:17.427Z,52.15
2023-03-17T10:09:24.723Z,51.31
2023-03-17T10:12:22.720Z,48.84
2023-03-17T10:15:38.264Z,48.55
2023-03-17T10:18:32.699Z,47.73
2023-03-17T10:21:30.076Z,47.94
2023-03-17T10:24:16.499Z,47.43
2023-03-17T10:27:07.532Z,48.15
2023-03-17T10:29:53.926Z,48.01
2023-03-17T10:32:40.523Z,47.71
2023-03-17T10:35:30.104Z,47.24
2023-03-17T10:38:23.970Z,47.96
2023-03-17T10:41:16.102Z,47.34
2023-03-17T10:44:20.825Z,47.13
2023-03-17T10:47:49.523Z,47.95
2023-03-17T10:50:40.594Z,48.28
2023-03-17T10:53:27.531Z,48.51
2023-03-17T10:56:30.323Z,48.86
2023-03-17T10:59:32.172Z,48.70
2023-03-17T11:02:27.641Z,48.49
2023-03-17T11:05:27.009Z,49.07
2023-03-17T11:08:19.090Z,48.97
2023-03-17T11:11:21.409Z,48.55
2023-03-17T11:14:18.796Z,49.22
2023-03-17T11:17:46.684Z,48.40
2023-03-17T11:21:00.915Z,49.10
2023-03-17T11:24:17.075Z,49.27
2023-03-17T11:27:32.766Z,47.67
2023-03-17T11:30:35.433Z,47.50
2023-03-17T11:33:34.071Z,46.99
2023-03-17T11:37:03.808Z,46.37
2023-03-17T11:40:28.446Z,44.15
2023-03-17T11:43:46.051Z,42.76
2023-03-17T11:47:36.033Z,43.53
2023-03-17T11:50:39.092Z,44.13
2023-03-17T11:54:02.506Z,43.05
2023-03-17T11:57:04.351Z,40.54
2023-03-17T11:59:58.226Z,41.56
2023-03-17T12:02:58.863Z,40.14
2023-03-17T12:05:50.954Z,39.88
2023-03-17T12:08:46.297Z,40.03
2023-03-17T12:11:38.239Z,39.73
2023-03-17T12:14:57.247Z,39.51
2023-03-17T12:18:14.962Z,39.66
2023-03-17T12:21:18.098Z,41.03
2023-03-17T12:24:36.186Z,40.60
2023-03-17T12:27:54.752Z,40.85
2023-03-17T12:31:12.274Z,39.79
2023-03-17T12:34:26.347Z,40.63
2023-03-17T12:37:15.383Z,40.75
2023-03-17T12:40:15.874Z,41.59
2023-03-17T12:43:46.368Z,40.99
2023-03-17T12:46:48.481Z,41.71
2023-03-17T12:49:56.970Z,41.06
2023-03-17T12:53:05.279Z,41.77
2023-03-17T12:55:55.154Z,42.17
2023-03-17T12:58:49.093Z,42.24
2023-03-17T13:01:44.086Z,40.80
2023-03-17T13:04:35.105Z,40.57
2023-03-17T13:07:44.740Z,40.79
2023-03-17T13:10:48.106Z,40.98
2023-03-17T13:14:14.851Z,41.00
2023-03-17T13:17:28.300Z,41.80
2023-03-17T13:20:35.594Z,41.71
2023-03-17T13:23:41.707Z,42.00
2023-03-17T13:26:55.334Z,42.00
2023-03-17T13:29:45.247Z,41.43
2023-03-17T13:32:36.095Z,41.36
2023-03-17T13:35:51.196Z,41.60
2023-03-17T13:39:17.822Z,41.93
2023-03-17T13:42:18.679Z,41.50
2023-03-17T13:45:24.648Z,41.28
2023-03-17T13:48:29.173Z,41.34
2023-03-17T13:51:22.223Z,40.99
2023-03-17T13:54:20.745Z,41.42
2023-03-17T13:57:36.619Z,41.97
2023-03-17T14:00:28.155Z,41.47
2023-03-17T14:03:46.844Z,41.65
2023-03-17T14:06:37.583Z,41.85
2023-03-17T14:09:40.914Z,42.06
2023-03-17T14:12:46.388Z,41.68
2023-03-17T14:16:03.154Z,41.84
2023-03-17T14:19:10.369Z,41.32
2023-03-17T14:22:19.208Z,42.05
2023-03-17T14:25:07.872Z,42.25
2023-03-17T14:27:57.248Z,42.37
2023-03-17T14:31:06.766Z,42.17
2023-03-17T14:33:59.958Z,42.21
2023-03-17T14:36:47.069Z,42.48
2023-03-17T14:39:33.236Z,42.04
2023-03-17T14:42:29.939Z,42.28
2023-03-17T14:45:58.983Z,42.36
2023-03-17T14:48:58.316Z,42.12
2023-03-17T14:51:48.190Z,42.09
2023-03-17T14:54:35.274Z,41.95
2023-03-17T14:57:28.418Z,41.30
2023-03-17T15:00:49.215Z,41.19
2023-03-17T15:03:40.118Z,41.08
2023-03-17T15:06:29.843Z,41.21
2023-03-17T15:09:33.596Z,42.44
2023-03-17T15:12:25.835Z,43.47
2023-03-17T15:15:41.115Z,44.58
2023-03-17T15:18:27.685Z,45.77
2023-03-17T15:21:33.279Z,46.51
2023-03-17T15:24:28.071Z,46.70
2023-03-17T15:27:17.662Z,47.36
2023-03-17T15:30:05.018Z,47.68
2023-03-17T15:32:58.892Z,48.04
2023-03-17T15:35:45.919Z,48.13
2023-03-17T15:38:33.795Z,48.23
2023-03-17T15:41:20.707Z,48.54
2023-03-17T15:44:06.832Z,49.02
2023-03-17T15:46:53.761Z,49.18
2023-03-17T15:49:39.974Z,49.21
2023-03-17T15:52:28.399Z,49.63
2023-03-17T15:55:35.276Z,49.60
2023-03-17T15:58:21.933Z,49.78
2023-03-17T16:01:11.424Z,50.37
2023-03-17T16:03:57.677Z,50.24
2023-03-17T16:06:44.113Z,50.29
2023-03-17T16:09:30.391Z,50.59
2023-03-17T16:12:17.191Z,50.82
2023-03-17T16:15:13.243Z,50.69
2023-03-17T16:18:14.167Z,50.51
2023-03-17T16:21:03.389Z,50.62
2023-03-17T16:23:50.056Z,50.50
2023-03-17T16:26:36.503Z,50.38
2023-03-17T16:29:22.598Z,50.40
2023-03-17T16:32:10.355Z,50.33
2023-03-17T16:34:56.661Z,50.33
2023-03-17T16:37:43.878Z,50.17
2023-03-17T16:40:36.617Z,50.01
2023-03-17T16:43:25.991Z,50.04
2023-03-17T16:46:13.175Z,50.00
2023-03-17T16:48:59.471Z,50.01
2023-03-17T16:51:47.125Z,49.73
2023-03-17T16:54:34.318Z,49.77
2023-03-17T16:57:20.773Z,49.50
2023-03-17T17:00:13.741Z,49.20
2023-03-17T17:02:59.962Z,49.07
2023-03-17T17:05:46.748Z,49.14
2023-03-17T17:08:33.091Z,49.19
2023-03-17T17:11:20.691Z,49.51
2023-03-17T17:14:07.269Z,49.68
2023-03-17T17:16:53.813Z,49.98
2023-03-17T17:19:40.493Z,50.05
2023-03-17T17:22:28.862Z,50.23
2023-03-17T17:25:16.959Z,50.46
2023-03-17T17:28:04.093Z,50.46
2023-03-17T17:30:51.778Z,50.79
2023-03-17T17:33:38.786Z,50.70
2023-03-17T17:36:26.286Z,50.84
2023-03-17T17:39:13.740Z,50.65
2023-03-17T17:42:00.180Z,50.68
2023-03-17T17:44:47.260Z,50.64
2023-03-17T17:47:33.666Z,50.42
2023-03-17T17:50:26.784Z,50.51
2023-03-17T17:53:14.200Z,50.41
2023-03-17T17:56:00.693Z,50.42
2023-03-17T17:58:47.172Z,50.34
2023-03-17T18:01:33.532Z,50.17
2023-03-17T18:04:20.101Z,50.21
2023-03-17T18:07:07.298Z,50.07
2023-03-17T18:09:53.832Z,50.01
2023-03-17T18:12:40.299Z,50.03
2023-03-17T18:15:27.164Z,50.14
2023-03-17T18:18:13.741Z,50.21
2023-03-17T18:21:00.515Z,50.18
2023-03-17T18:23:48.123Z,50.13
2023-03-17T18:26:35.153Z,50.19
2023-03-17T18:29:21.544Z,50.25
2023-03-17T18:32:08.626Z,50.24
2023-03-17T18:35:00.033Z,50.37
2023-03-17T18:37:47.348Z,50.40
2023-03-17T18:40:35.186Z,50.52
2023-03-17T18:43:22.859Z,50.58
2023-03-17T18:46:12.245Z,50.66
2023-03-17T18:48:58.842Z,50.76
2023-03-17T18:51:45.495Z,50.85
2023-03-17T18:54:32.455Z,50.89
2023-03-17T18:57:18.508Z,51.08
2023-03-17T19:00:08.033Z,51.14
2023-03-17T19:02:54.273Z,51.26
2023-03-17T19:05:41.022Z,51.48
2023-03-17T19:08:28.642Z,51.53
2023-03-17T19:11:18.832Z,51.72
2023-03-17T19:14:09.415Z,51.84
2023-03-17T19:16:56.124Z,51.93
2023-03-17T19:19:42.554Z,52.04
2023-03-17T19:22:29.050Z,52.29
2023-03-17T19:25:16.090Z,52.53
2023-03-17T19:28:03.959Z,52.69
2023-03-17T19:30:50.290Z,52.84
2023-03-17T19:33:37.066Z,53.33
2023-03-17T19:36:23.652Z,53.45
2023-03-17T19:39:12.124Z,53.86
2023-03-17T19:41:58.672Z,53.98
2023-03-17T19:44:48.292Z,54.27
2023-03-17T19:47:34.812Z,54.49
2023-03-17T19:50:21.224Z,54.88
2023-03-17T19:53:07.477Z,54.91
2023-03-17T19:55:57.362Z,55.00
2023-03-17T19:58:45.117Z,55.56
2023-03-17T20:01:31.878Z,55.55
2023-03-17T20:04:21.656Z,55.89
2023-03-17T20:07:09.757Z,56.17
2023-03-17T20:09:56.462Z,56.07
2023-03-17T20:12:45.110Z,56.31
2023-03-17T20:15:32.301Z,56.20
2023-03-17T20:18:23.593Z,56.04
2023-03-17T20:21:17.021Z,56.33
2023-03-17T20:24:05.378Z,56.65
2023-03-17T20:26:54.076Z,56.69
2023-03-17T20:29:43.804Z,56.62
2023-03-17T20:32:30.326Z,56.84
2023-03-17T20:35:20.415Z,56.72
2023-03-17T20:38:07.657Z,56.77
2023-03-17T20:41:14.681Z,56.84
2023-03-17T20:44:01.413Z,56.96
2023-03-17T20:46:48.020Z,56.99
2023-03-17T20:49:35.420Z,56.88
2023-03-17T20:52:21.799Z,56.80
2023-03-17T20:55:13.291Z,56.80
2023-03-17T20:58:01.588Z,56.58
2023-03-17T21:00:49.121Z,56.67
2023-03-17T21:03:35.569Z,56.69
2023-03-17T21:06:25.962Z,56.57
2023-03-17T21:09:12.615Z,56.54
2023-03-17T21:11:59.035Z,56.61
2023-03-17T21:14:50.087Z,56.58
2023-03-17T21:17:39.853Z,56.58
2023-03-17T21:20:26.716Z,56.69
2023-03-17T21:23:13.665Z,56.59
2023-03-17T21:26:00.645Z,56.65
2023-03-17T21:28:48.443Z,56.59
2023-03-17T21:31:34.691Z,56.69
2023-03-17T21:34:21.975Z,56.65
2023-03-17T21:37:08.688Z,56.64
2023-03-17T21:39:56.029Z,56.58
2023-03-17T21:42:42.432Z,56.57
2023-03-17T21:45:28.970Z,56.44
2023-03-17T21:48:16.019Z,56.36
2023-03-17T21:51:02.765Z,56.26
2023-03-17T21:53:49.001Z,56.13
2023-03-17T21:56:35.782Z,56.09
2023-03-17T21:59:22.063Z,55.94
2023-03-17T22:02:11.929Z,55.75
2023-03-17T22:04:58.724Z,55.63
2023-03-17T22:07:44.717Z,55.35
2023-03-17T22:10:31.375Z,55.38
2023-03-17T22:13:18.194Z,55.23
2023-03-17T22:16:04.995Z,55.17
2023-03-17T22:18:52.108Z,55.00
2023-03-17T22:21:38.819Z,54.94
2023-03-17T22:24:25.102Z,54.87
2023-03-17T22:27:12.066Z,54.78
2023-03-17T22:29:58.302Z,54.70
2023-03-17T22:32:44.331Z,54.63
2023-03-17T22:35:31.522Z,54.51
2023-03-17T22:38:17.896Z,54.55
2023-03-17T22:41:08.140Z,54.38
2023-03-17T22:43:55.087Z,54.23
2023-03-17T22:46:41.785Z,54.18
2023-03-17T22:49:28.264Z,54.16
2023-03-17T22:52:14.825Z,54.16
2023-03-17T22:55:00.935Z,53.98
2023-03-17T22:57:47.374Z,54.06
2023-03-17T23:00:33.967Z,53.87
2023-03-17T23:03:21.401Z,53.92
2023-03-17T23:06:08.913Z,53.85
2023-03-17T23:08:55.519Z,53.75
2023-03-17T23:11:42.187Z,53.59
2023-03-17T23:14:28.540Z,53.41
2023-03-17T23:17:15.247Z,53.30
2023-03-17T23:20:01.650Z,53.20
2023-03-17T23:22:47.876Z,53.13
2023-03-17T23:25:35.935Z,53.04
2023-03-17T23:28:25.377Z,53.06
2023-03-17T23:31:12.486Z,52.97
2023-03-17T23:34:00.435Z,52.91
2023-03-17T23:36:46.344Z,52.92
2023-03-17T23:39:33.027Z,53.01
2023-03-17T23:42:19.574Z,53.02
2023-03-17T23:45:08.075Z,53.09
2023-03-17T23:47:56.750Z,53.16
2023-03-17T23:50:43.503Z,53.20
2023-03-17T23:53:30.838Z,53.17
2023-03-17T23:56:19.342Z,53.23
2023-03-17T23:59:07.500Z,53.29
